»·PEaware :: JBU1436 KLGB-KSFO

JBU1436 :: KLGB-KSFO

FLIGHT INFORMATION

Flight Status: Arrived
Operator:
JetBlue Airways
More flights by this operator :: More flights under this callsign
Pilot: Tom M. (19012)
Aircraft: AIRBUS A320
(A320)
More flights by this aircraft type
Origin: KLGB Long Beach
United States
Destination: KSFO San Francisco Intl
United States
More flights between these airports :: More routes between these airports
Route: +TOPMM3 IKAYE RZS STOKD SERFR SERFR3
File this flight plan on PilotEdge
Remarks: SEL / AMDH
Altitude:
(Current/Filed)
360ft
Speed:
(Current/Filed)
453kts
Departed: 26-Apr-18 07:58 PM
Arrived: 26-Apr-18 08:52 PM
Distance/Time
Traveled:
307nm/0:54
Distance/Time
To Go:
Arrived

Flight Plot

Page will automatically refresh every two minutes.

Flight plan parsing failed; only flown route is shown


Map Options




Map Legend


Flown Route
Filed Route
Departure Airport
Arrival Airport
Navaid (VOR, NDB)
Fix

Horizontal Profiles

Position Reports

Time Latitude Longitude Heading Altitude Ground
Speed
26-Apr-18 19:23 33.819468 -118.146332 90 74ft 0kts
26-Apr-18 19:24 33.819468 -118.146332 90 74ft 0kts
26-Apr-18 19:25 33.819468 -118.146332 90 74ft 0kts
26-Apr-18 19:26 33.819468 -118.146332 90 74ft 0kts
26-Apr-18 19:27 33.819468 -118.146332 90 74ft 0kts
26-Apr-18 19:28 33.819468 -118.146332 90 74ft 0kts
26-Apr-18 19:29 33.819468 -118.146332 90 74ft 0kts
26-Apr-18 19:30 33.819468 -118.146332 90 74ft 0kts
26-Apr-18 19:31 33.819468 -118.146332 90 74ft 0kts
26-Apr-18 19:32 33.819468 -118.146332 90 74ft 0kts
26-Apr-18 19:33 33.819468 -118.146332 90 74ft 0kts
26-Apr-18 19:34 33.819468 -118.146332 90 74ft 0kts
26-Apr-18 19:35 33.819468 -118.146332 90 74ft 0kts
26-Apr-18 19:36 33.819468 -118.146332 90 74ft 0kts
26-Apr-18 19:37 33.819468 -118.146332 90 74ft 0kts
26-Apr-18 19:38 33.819468 -118.146332 90 74ft 0kts
26-Apr-18 19:39 33.819468 -118.146332 90 74ft 0kts
26-Apr-18 19:40 33.819468 -118.146332 90 74ft 0kts
26-Apr-18 19:41 33.819468 -118.146332 90 74ft 0kts
26-Apr-18 19:42 33.819468 -118.146332 90 74ft 0kts
26-Apr-18 19:43 33.819471 -118.146531 94 74ft 2kts
26-Apr-18 19:44 33.819772 -118.147073 180 74ft 1kts
26-Apr-18 19:45 33.819815 -118.147073 180 74ft 0kts
26-Apr-18 19:46 33.819813 -118.147073 180 74ft 0kts
26-Apr-18 19:47 33.819812 -118.147073 180 74ft 0kts
26-Apr-18 19:48 33.818555 -118.147119 180 74ft 11kts
26-Apr-18 19:49 33.815243 -118.146402 133 74ft 12kts
26-Apr-18 19:50 33.812155 -118.142702 134 74ft 18kts
26-Apr-18 19:51 33.808194 -118.137909 134 74ft 10kts
26-Apr-18 19:52 33.807894 -118.137666 164 74ft 0kts
26-Apr-18 19:53 33.807893 -118.137666 164 74ft 0kts
26-Apr-18 19:54 33.807892 -118.137666 164 74ft 0kts
26-Apr-18 19:55 33.807892 -118.137665 164 74ft 0kts
26-Apr-18 19:56 33.807886 -118.137664 164 74ft 0kts
26-Apr-18 19:57 33.808163 -118.139747 313 74ft 41kts
26-Apr-18 19:58 33.834646 -118.169965 318 1577ft 153kts
26-Apr-18 19:59 33.857643 -118.222618 277 3437ft 205kts
26-Apr-18 20:00 33.854850 -118.293112 257 5833ft 230kts
26-Apr-18 20:01 33.841935 -118.378436 258 7821ft 286kts
26-Apr-18 20:02 33.831003 -118.475176 263 10623ft 299kts
26-Apr-18 20:03 33.820876 -118.584019 262 11936ft 356kts
26-Apr-18 20:04 33.809501 -118.704422 263 14304ft 368kts
26-Apr-18 20:05 33.855350 -118.812446 314 16517ft 388kts
26-Apr-18 20:06 33.934066 -118.904711 312 18490ft 401kts
26-Apr-18 20:07 34.014225 -119.001383 312 20371ft 413kts
26-Apr-18 20:08 34.096532 -119.100651 311 22061ft 424kts
26-Apr-18 20:09 34.180677 -119.202372 311 23607ft 433kts
26-Apr-18 20:10 34.266739 -119.306762 311 25059ft 441kts
26-Apr-18 20:11 34.353762 -119.412633 311 26410ft 447kts
26-Apr-18 20:12 34.441941 -119.520268 311 27684ft 453kts
26-Apr-18 20:13 34.531440 -119.629875 310 28872ft 459kts
26-Apr-18 20:14 34.621496 -119.740425 310 30179ft 459kts
26-Apr-18 20:15 34.710781 -119.850476 310 31562ft 455kts
26-Apr-18 20:16 34.799069 -119.959663 310 32801ft 452kts
26-Apr-18 20:17 34.886884 -120.068600 309 33869ft 451kts
26-Apr-18 20:18 34.974636 -120.177776 309 34882ft 449kts
26-Apr-18 20:19 35.061817 -120.286606 309 35737ft 449kts
26-Apr-18 20:20 35.148683 -120.395407 309 36112ft 447kts
26-Apr-18 20:21 35.235729 -120.504800 309 36107ft 448kts
26-Apr-18 20:22 35.322410 -120.614106 309 36085ft 448kts
26-Apr-18 20:23 35.409068 -120.723716 309 36096ft 449kts
26-Apr-18 20:24 35.498027 -120.831864 317 36112ft 454kts
26-Apr-18 20:25 35.599219 -120.925167 318 36108ft 456kts
26-Apr-18 20:26 35.700460 -121.019801 318 36089ft 457kts
26-Apr-18 20:27 35.801752 -121.114227 317 36088ft 457kts
26-Apr-18 20:28 35.903074 -121.209185 318 36031ft 458kts
26-Apr-18 20:29 36.004659 -121.304632 318 34751ft 460kts
26-Apr-18 20:30 36.109405 -121.397021 323 32204ft 467kts
26-Apr-18 20:31 36.220145 -121.482870 323 29366ft 473kts
26-Apr-18 20:32 36.312781 -121.555489 324 27186ft 469kts
26-Apr-18 20:33 36.422339 -121.641583 323 24481ft 463kts
26-Apr-18 20:34 36.527064 -121.723976 323 22497ft 415kts
26-Apr-18 20:35 36.623901 -121.800752 323 20257ft 407kts
26-Apr-18 20:36 36.731111 -121.885655 326 17826ft 385kts
26-Apr-18 20:37 36.834538 -121.920158 346 15664ft 388kts
26-Apr-18 20:38 36.939218 -121.949421 345 13647ft 381kts
26-Apr-18 20:39 37.020938 -121.979777 341 12008ft 358kts
26-Apr-18 20:40 37.110630 -122.014954 341 10690ft 317kts
26-Apr-18 20:41 37.191899 -122.046729 340 9243ft 299kts
26-Apr-18 20:42 37.269269 -122.077091 340 7958ft 285kts
26-Apr-18 20:43 37.344487 -122.106878 339 6992ft 275kts
26-Apr-18 20:44 37.416692 -122.133493 342 5523ft 279kts
26-Apr-18 20:45 37.488210 -122.158636 339 3944ft 260kts
26-Apr-18 20:46 37.544503 -122.197779 292 2869ft 213kts
26-Apr-18 20:47 37.568604 -122.255599 294 1889ft 157kts
26-Apr-18 20:48 37.586341 -122.297800 293 1120ft 129kts
26-Apr-18 20:49 37.603178 -122.337730 293 415ft 128kts
26-Apr-18 20:50 37.617877 -122.373144 298 27ft 45kts
26-Apr-18 20:51 37.618764 -122.378641 215 27ft 2kts
26-Apr-18 20:52 37.618701 -122.378687 207 27ft 0kts
26-Apr-18 20:53 37.616618 -122.379655 208 27ft 11kts
26-Apr-18 20:54 37.612527 -122.382370 207 27ft 21kts
26-Apr-18 20:55 37.611238 -122.386126 296 27ft 11kts
26-Apr-18 20:56 37.610285 -122.389082 220 27ft 7kts
26-Apr-18 20:57 37.610964 -122.390725 39 27ft 1kts
26-Apr-18 20:58 37.611288 -122.390338 44 27ft 0kts
26-Apr-18 20:59 37.611288 -122.390338 44 27ft 0kts
26-Apr-18 21:00 37.611288 -122.390338 44 27ft 0kts
26-Apr-18 21:01 37.611288 -122.390338 44 27ft 0kts
26-Apr-18 21:02 37.611288 -122.390338 44 27ft 0kts
26-Apr-18 21:03 37.611288 -122.390338 44 27ft 0kts

Navigation Log

Ident Type
Flight plan parsing failed, navigation log unavailable